Time;durP1;ratioP1;P1;durP2;ratioP2;P2;SDS_P1;SDS_P2;PMS_P1;PMS_P2;Temp;Humidity;BMP_temperature;BMP_pressure;BME280_temperature;BME280_humidity;BME280_pressure;Samples;Min_cycle;Max_cycle;Signal;HPM_P1;HPM_P2
2022/05/22 00:02:12;;;;;;;;;;;;;;;18.90;51.84;92862.03;2055641;70;20078;-72
2022/05/22 00:04:37;;;;;;;;;;;;;;;18.93;50.63;92857.88;2055854;70;20063;-69
2022/05/22 00:07:05;;;;;;;;;;;;;;;18.28;54.04;92865.69;2055707;70;20487;-71
2022/05/22 00:09:31;;;;;;;;;;;;;;;18.03;55.94;92855.53;2055698;70;20054;-70
2022/05/22 00:11:57;;;;;;;;;;;;;;;18.13;54.99;92854.44;2055747;69;20043;-70
2022/05/22 00:14:25;;;;;;;;;;;;;;;18.16;55.07;92851.00;2068545;69;20077;-70
2022/05/22 00:16:51;;;;;;;;;;;;;;;18.03;55.48;92855.53;2055519;69;20066;-71
2022/05/22 00:19:18;;;;;;;;;;;;;;;17.96;55.36;92856.72;2055652;69;20058;-71
2022/05/22 00:21:45;;;;;;;;;;;;;;;18.08;54.60;92847.84;2055824;69;20421;-71
2022/05/22 00:24:15;;;;;;;;;;;;;;;18.02;54.63;92842.69;2055611;70;20058;-72
2022/05/22 00:26:44;;;;;;;;;;;;;;;17.94;55.89;92850.94;2055691;70;20050;-72
2022/05/22 00:29:09;;;;;;;;;;;;;;;17.91;55.83;92848.66;2055712;70;20486;-72
2022/05/22 00:31:35;;;;;;;;;;;;;;;17.81;56.10;92837.63;2068714;69;20057;-72
2022/05/22 00:34:00;;;;;;;;;;;;;;;17.60;55.48;92853.22;2055588;70;20058;-72
2022/05/22 00:36:26;;;;;;;;;;;;;;;17.67;56.21;92842.78;2068667;69;20536;-71
2022/05/22 00:38:51;;;;;;;;;;;;;;;17.70;56.01;92842.22;2068575;69;20082;-69
2022/05/22 00:41:17;;;;;;;;;;;;;;;17.79;55.40;92837.56;2068483;69;20052;-70
2022/05/22 00:43:44;;;;;;;;;;;;;;;17.64;55.87;92846.94;2055563;70;20076;-69
2022/05/22 00:46:11;;;;;;;;;;;;;;;17.63;56.17;92848.34;2068733;69;20089;-71
2022/05/22 00:48:38;;;;;;;;;;;;;;;17.66;55.66;92839.22;2055712;70;20058;-72
2022/05/22 00:51:06;;;;;;;;;;;;;;;17.70;55.28;92842.22;2055481;69;20078;-73
2022/05/22 00:53:33;;;;;;;;;;;;;;;17.56;57.12;92853.09;2055522;70;20512;-71
2022/05/22 00:56:01;;;;;;;;;;;;;;;17.69;54.62;92843.59;2055347;70;20058;-72
2022/05/22 00:58:29;;;;;;;;;;;;;;;17.58;56.75;92835.34;2068260;69;20091;-71
2022/05/22 01:00:55;;;;;;;;;;;;;;;17.50;56.61;92832.91;2068567;69;20058;-72
2022/05/22 01:03:28;;;;;;;;;;;;;;;17.60;55.37;92830.47;2055497;70;20073;-70
2022/05/22 01:06:00;;;;;;;;;;;;;;;17.25;56.47;92834.13;2068373;69;20490;-72
2022/05/22 01:08:25;;;;;;;;;;;;;;;17.41;55.12;92822.59;2055400;70;20093;-72
2022/05/22 01:11:01;;;;;;;;;;;;;;;17.23;57.49;92826.25;2068418;69;20082;-71
2022/05/22 01:13:30;;;;;;;;;;;;;;;17.17;57.21;92820.31;2055479;70;20058;-72
2022/05/22 01:15:56;;;;;;;;;;;;;;;17.16;57.30;92816.00;2065733;69;20061;-72
2022/05/22 01:18:21;;;;;;;;;;;;;;;17.11;58.15;92819.34;2055485;70;20047;-69
2022/05/22 01:20:51;;;;;;;;;;;;;;;17.14;57.11;92820.91;2068614;69;20058;-69
2022/05/22 01:23:20;;;;;;;;;;;;;;;16.84;58.69;92826.13;2055502;69;20420;-70
2022/05/22 01:25:46;;;;;;;;;;;;;;;16.19;60.21;92839.13;2055560;69;20500;-70
2022/05/22 01:28:14;;;;;;;;;;;;;;;16.78;58.09;92840.84;2068633;69;20512;-70
2022/05/22 01:30:39;;;;;;;;;;;;;;;16.83;57.81;92839.63;2055554;70;20514;-70
2022/05/22 01:33:07;;;;;;;;;;;;;;;16.83;58.29;92847.41;2068616;69;20077;-69
2022/05/22 01:35:35;;;;;;;;;;;;;;;16.94;56.64;92841.47;2068616;69;20157;-71
2022/05/22 01:38:04;;;;;;;;;;;;;;;17.29;55.07;92845.66;2068459;69;20058;-72
2022/05/22 01:40:32;;;;;;;;;;;;;;;17.08;56.57;92849.09;2068437;69;20084;-72
2022/05/22 01:42:58;;;;;;;;;;;;;;;16.90;57.41;92844.16;2068383;69;20055;-70
2022/05/22 01:45:25;;;;;;;;;;;;;;;16.93;57.60;92847.81;2068310;69;20066;-70
2022/05/22 01:47:51;;;;;;;;;;;;;;;17.00;55.98;92841.72;2065745;69;20054;-71
2022/05/22 01:50:18;;;;;;;;;;;;;;;16.85;57.96;92838.94;2068504;69;20139;-71
2022/05/22 01:52:45;;;;;;;;;;;;;;;16.72;57.55;92843.41;2068571;69;20509;-71
2022/05/22 01:55:11;;;;;;;;;;;;;;;16.72;58.41;92844.16;2068544;69;20047;-72
2022/05/22 01:57:39;;;;;;;;;;;;;;;16.83;57.67;92841.72;2068290;69;20114;-70
2022/05/22 02:00:09;;;;;;;;;;;;;;;16.73;57.49;92842.06;2068536;69;20135;-70
2022/05/22 02:02:40;;;;;;;;;;;;;;;17.15;55.63;92830.91;2055536;70;20126;-70
2022/05/22 02:05:10;;;;;;;;;;;;;;;16.87;56.69;92847.56;2068443;69;20501;-70
2022/05/22 02:10:22;;;;;;;;;;;;;;;16.72;57.86;92840.56;2069854;69;20063;-70
2022/05/22 02:12:48;;;;;;;;;;;;;;;16.55;58.82;92846.97;2069321;69;20064;-70
2022/05/22 02:15:14;;;;;;;;;;;;;;;16.36;60.19;92840.53;2056025;70;20089;-71
2022/05/22 02:17:40;;;;;;;;;;;;;;;16.59;57.92;92833.66;2069350;69;20084;-70
2022/05/22 02:20:07;;;;;;;;;;;;;;;16.45;59.51;92838.75;2069092;69;20119;-70
2022/05/22 02:22:43;;;;;;;;;;;;;;;16.62;57.54;92835.19;2069325;69;20147;-73
2022/05/22 02:25:11;;;;;;;;;;;;;;;16.59;57.80;92835.78;2066430;69;20050;-72
2022/05/22 02:27:38;;;;;;;;;;;;;;;15.71;62.08;92818.63;2069163;69;20442;-72
2022/05/22 02:30:04;;;;;;;;;;;;;;;16.25;59.76;92824.44;2068580;69;20497;-71
2022/05/22 02:32:30;;;;;;;;;;;;;;;16.21;59.71;92819.31;2055769;70;20061;-71
2022/05/22 02:34:55;;;;;;;;;;;;;;;16.23;59.22;92821.50;2068577;69;20050;-69
2022/05/22 02:37:21;;;;;;;;;;;;;;;16.35;58.38;92815.59;2068612;69;20058;-71
2022/05/22 02:39:46;;;;;;;;;;;;;;;16.24;60.19;92811.59;2055658;69;20046;-71
2022/05/22 02:42:32;;;;;;;;;;;;;;;16.26;59.89;92811.69;2056509;69;20441;-71
2022/05/22 02:44:58;;;;;;;;;;;;;;;16.27;59.37;92816.72;2068507;69;20050;-72
2022/05/22 02:47:24;;;;;;;;;;;;;;;16.07;59.58;92815.88;2055152;70;20050;-70
2022/05/22 02:53:17;;;;;;;;;;;;;;;16.06;58.17;92805.16;2055429;69;20622;-71
2022/05/22 02:56:12;;;;;;;;;;;;;;;15.94;60.19;92803.28;2054963;69;20563;-70
2022/05/22 02:58:58;;;;;;;;;;;;;;;16.03;60.50;92812.84;2055505;69;20141;-70
2022/05/22 03:01:23;;;;;;;;;;;;;;;16.02;60.10;92808.56;2068365;69;20077;-72
2022/05/22 03:03:50;;;;;;;;;;;;;;;16.04;60.21;92805.09;2068048;69;20058;-71
2022/05/22 03:09:01;;;;;;;;;;;;;;;15.87;61.58;92795.16;2068161;69;20098;-71
2022/05/22 03:11:26;;;;;;;;;;;;;;;15.85;61.03;92798.63;2055133;70;20495;-71
2022/05/22 03:13:51;;;;;;;;;;;;;;;15.82;61.37;92802.03;2067638;69;20054;-71
2022/05/22 03:16:17;;;;;;;;;;;;;;;15.12;63.52;92796.13;2067828;69;20062;-71
2022/05/22 03:18:54;;;;;;;;;;;;;;;15.36;62.14;92807.81;2068816;69;20053;-72
2022/05/22 03:21:20;;;;;;;;;;;;;;;15.50;60.67;92804.88;2055710;70;20062;-72
2022/05/22 03:23:49;;;;;;;;;;;;;;;15.65;61.09;92800.59;2055732;70;20050;-69
2022/05/22 03:26:14;;;;;;;;;;;;;;;15.67;60.65;92798.59;2068668;69;20054;-69
2022/05/22 03:28:40;;;;;;;;;;;;;;;15.83;59.71;92784.34;2055902;70;20062;-71
2022/05/22 03:31:05;;;;;;;;;;;;;;;15.65;60.77;92789.22;2055685;70;20433;-71
2022/05/22 03:33:31;;;;;;;;;;;;;;;15.27;63.01;92782.56;2068950;69;20057;-71
2022/05/22 03:35:56;;;;;;;;;;;;;;;15.61;61.02;92795.44;2068443;69;20050;-71
2022/05/22 03:38:22;;;;;;;;;;;;;;;15.76;60.10;92796.81;2068837;69;20057;-71
2022/05/22 03:40:53;;;;;;;;;;;;;;;15.62;60.87;92796.88;2067878;69;20175;-71
2022/05/22 03:43:19;;;;;;;;;;;;;;;15.53;61.15;92803.56;2068624;69;20141;-70
2022/05/22 03:45:45;;;;;;;;;;;;;;;15.65;61.06;92794.91;2068654;69;20054;-70
2022/05/22 03:48:11;;;;;;;;;;;;;;;15.48;62.03;92796.25;2068807;69;20621;-70
2022/05/22 03:50:38;;;;;;;;;;;;;;;15.52;61.90;92785.81;2068386;69;20058;-71
2022/05/22 03:53:04;;;;;;;;;;;;;;;15.42;62.63;92793.91;2068605;69;20057;-69
2022/05/22 03:59:06;;;;;;;;;;;;;;;15.38;63.03;92807.91;2055700;69;20077;-71
2022/05/22 04:05:00;;;;;;;;;;;;;;;15.36;62.38;92792.91;2055921;69;20138;-73
2022/05/22 04:07:26;;;;;;;;;;;;;;;15.34;60.89;92796.38;2068910;69;20137;-73
2022/05/22 04:09:56;;;;;;;;;;;;;;;15.66;60.41;92802.78;2068609;69;20058;-72
2022/05/22 04:12:43;;;;;;;;;;;;;;;15.60;60.57;92799.66;2068801;69;20054;-73
2022/05/22 04:15:10;;;;;;;;;;;;;;;15.21;62.47;92791.53;2055858;69;20046;-73
2022/05/22 04:17:36;;;;;;;;;;;;;;;15.16;62.66;92801.22;2066144;69;20053;-73
2022/05/22 04:20:11;;;;;;;;;;;;;;;15.41;60.96;92786.78;2068876;69;20078;-72
2022/05/22 04:25:24;;;;;;;;;;;;;;;15.38;61.65;92796.56;2068777;69;20081;-73
2022/05/22 04:27:50;;;;;;;;;;;;;;;15.19;63.13;92789.34;2068739;69;20065;-72
2022/05/22 04:30:18;;;;;;;;;;;;;;;15.25;62.49;92798.09;2068344;69;20139;-74
2022/05/22 04:32:50;;;;;;;;;;;;;;;15.37;61.95;92797.19;2068836;69;20490;-73
2022/05/22 04:35:17;;;;;;;;;;;;;;;15.58;59.33;92781.78;2068843;69;20403;-72
2022/05/22 04:37:43;;;;;;;;;;;;;;;15.44;61.02;92794.00;2068791;69;20054;-73
2022/05/22 04:40:10;;;;;;;;;;;;;;;14.91;64.04;92807.88;2068585;69;20502;-72
2022/05/22 04:42:36;;;;;;;;;;;;;;;15.33;63.54;92803.41;2068674;69;20054;-73
2022/05/22 04:45:04;;;;;;;;;;;;;;;15.25;63.41;92809.44;2068790;69;20058;-73
2022/05/22 04:47:41;;;;;;;;;;;;;;;15.27;62.83;92808.81;2068802;69;20065;-75
2022/05/22 04:50:17;;;;;;;;;;;;;;;15.36;63.14;92809.94;2055826;70;20050;-71
2022/05/22 04:53:02;;;;;;;;;;;;;;;15.41;62.91;92800.22;2055951;69;20120;-73
2022/05/22 04:55:33;;;;;;;;;;;;;;;15.42;62.68;92802.41;2068706;69;20045;-72
2022/05/22 04:58:07;;;;;;;;;;;;;;;15.55;62.15;92811.47;2068776;69;20050;-71
2022/05/22 05:00:33;;;;;;;;;;;;;;;15.36;63.43;92810.66;2055798;70;20080;-69
2022/05/22 05:03:06;;;;;;;;;;;;;;;15.19;64.54;92814.13;2066139;69;20054;-71
2022/05/22 05:05:31;;;;;;;;;;;;;;;15.60;61.01;92810.28;2055465;70;20145;-72
2022/05/22 05:07:57;;;;;;;;;;;;;;;15.56;62.32;92799.47;2068715;69;20042;-70
2022/05/22 05:10:39;;;;;;;;;;;;;;;15.57;61.90;92803.03;2068622;69;20050;-71
2022/05/22 05:13:27;;;;;;;;;;;;;;;15.57;63.63;92814.38;2055779;69;20055;-71
2022/05/22 05:16:01;;;;;;;;;;;;;;;15.68;61.13;92819.91;2068801;69;20073;-70
2022/05/22 05:18:31;;;;;;;;;;;;;;;15.73;61.12;92824.38;2068720;69;20050;-70
2022/05/22 05:20:59;;;;;;;;;;;;;;;15.21;64.89;92817.81;2068464;69;20043;-71
2022/05/22 05:23:26;;;;;;;;;;;;;;;15.67;62.89;92821.28;2068702;69;20490;-72
2022/05/22 05:26:02;;;;;;;;;;;;;;;15.64;64.23;92816.16;2068644;69;20180;-72
2022/05/22 05:28:28;;;;;;;;;;;;;;;15.87;60.44;92824.25;2068532;69;20115;-72
2022/05/22 05:30:55;;;;;;;;;;;;;;;15.65;63.78;92820.44;2068474;69;20058;-72
2022/05/22 05:33:20;;;;;;;;;;;;;;;15.82;62.75;92810.53;2068718;69;20054;-73
2022/05/22 05:39:29;;;;;;;;;;;;;;;16.10;59.41;92820.25;2055595;69;20045;-73
2022/05/22 05:42:00;;;;;;;;;;;;;;;16.04;63.12;92819.28;2055434;70;20046;-73
2022/05/22 05:44:33;;;;;;;;;;;;;;;16.02;60.74;92814.25;2068629;69;20057;-72
2022/05/22 05:47:09;;;;;;;;;;;;;;;16.20;60.95;92812.16;2068683;69;20054;-72
2022/05/22 05:49:49;;;;;;;;;;;;;;;16.09;62.36;92807.44;2068648;69;20055;-73
2022/05/22 05:52:25;;;;;;;;;;;;;;;16.21;61.53;92807.22;2067464;69;20051;-71
2022/05/22 05:54:57;;;;;;;;;;;;;;;16.17;63.11;92802.13;2068480;69;20155;-72
2022/05/22 05:57:57;;;;;;;;;;;;;;;16.23;61.38;92807.31;2064195;69;20141;-72
2022/05/22 06:00:24;;;;;;;;;;;;;;;16.35;59.13;92804.22;2066398;69;20081;-72
2022/05/22 06:02:50;;;;;;;;;;;;;;;16.38;61.39;92800.84;2068621;69;20153;-72
2022/05/22 06:05:16;;;;;;;;;;;;;;;16.49;59.91;92787.75;2068621;69;20142;-72
2022/05/22 06:07:42;;;;;;;;;;;;;;;16.47;60.38;92799.06;2068664;69;20430;-72
2022/05/22 06:10:13;;;;;;;;;;;;;;;16.46;63.35;92786.97;2068759;69;20070;-71
2022/05/22 06:13:03;;;;;;;;;;;;;;;16.60;61.73;92783.97;2055706;70;20069;-72
2022/05/22 06:15:29;;;;;;;;;;;;;;;16.56;63.46;92783.06;2065855;69;20077;-72
2022/05/22 06:17:56;;;;;;;;;;;;;;;16.69;60.79;92785.75;2068587;69;20051;-71
2022/05/22 06:20:23;;;;;;;;;;;;;;;16.72;62.65;92789.41;2068695;69;20062;-72
2022/05/22 06:22:49;;;;;;;;;;;;;;;16.75;63.70;92786.00;2055507;69;20051;-73
2022/05/22 06:25:34;;;;;;;;;;;;;;;16.93;60.60;92779.56;2055514;69;20058;-71
2022/05/22 06:28:19;;;;;;;;;;;;;;;17.14;63.47;92778.25;2055625;69;20065;-71
2022/05/22 06:31:04;;;;;;;;;;;;;;;17.28;60.45;92773.81;2068303;69;20056;-72
2022/05/22 06:33:48;;;;;;;;;;;;;;;17.48;59.59;92770.97;2055599;69;20050;-73
2022/05/22 06:36:39;;;;;;;;;;;;;;;17.43;60.96;92766.50;2068519;69;20483;-73
2022/05/22 06:39:50;;;;;;;;;;;;;;;17.60;59.18;92767.13;2057404;69;20104;-72
2022/05/22 06:42:25;;;;;;;;;;;;;;;17.82;58.72;92764.34;2055449;70;20043;-73
2022/05/22 06:44:59;;;;;;;;;;;;;;;17.94;58.27;92767.63;2055547;70;20089;-73
2022/05/22 06:47:48;;;;;;;;;;;;;;;17.69;57.59;92761.06;2057953;69;20065;-73
2022/05/22 06:50:32;;;;;;;;;;;;;;;17.92;55.49;92753.31;2055689;70;20046;-73
2022/05/22 06:53:17;;;;;;;;;;;;;;;18.17;56.28;92747.03;2060158;69;20463;-72
2022/05/22 06:56:09;;;;;;;;;;;;;;;18.31;57.71;92752.47;2059148;69;20542;-73
2022/05/22 06:58:36;;;;;;;;;;;;;;;18.45;56.54;92752.94;2056073;70;20058;-71
2022/05/22 07:01:20;;;;;;;;;;;;;;;18.50;55.56;92762.34;2056032;69;20505;-72
2022/05/22 07:04:21;;;;;;;;;;;;;;;18.47;56.46;92755.16;2064001;69;20144;-72
2022/05/22 07:06:50;;;;;;;;;;;;;;;18.34;57.70;92750.44;2069117;69;20053;-72
2022/05/22 07:09:37;;;;;;;;;;;;;;;18.28;55.99;92746.00;2068858;69;20050;-71
2022/05/22 07:12:35;;;;;;;;;;;;;;;18.42;56.72;92742.16;2060526;69;20437;-72
2022/05/22 07:15:19;;;;;;;;;;;;;;;18.56;55.64;92739.03;2056146;69;20127;-72
2022/05/22 07:17:45;;;;;;;;;;;;;;;18.74;54.99;92739.63;2055949;69;20047;-73
2022/05/22 07:20:42;;;;;;;;;;;;;;;18.84;53.86;92728.53;2060603;69;20062;-73
2022/05/22 07:23:21;;;;;;;;;;;;;;;19.03;54.87;92721.97;2069003;69;20426;-73
2022/05/22 07:26:19;;;;;;;;;;;;;;;19.16;54.70;92730.91;2068896;69;20054;-73
2022/05/22 07:28:58;;;;;;;;;;;;;;;19.29;56.21;92724.88;2068697;69;20139;-72
2022/05/22 07:31:54;;;;;;;;;;;;;;;19.35;54.90;92726.47;2060497;69;20058;-73
2022/05/22 07:34:39;;;;;;;;;;;;;;;19.40;54.46;92717.34;2055866;69;20053;-74
2022/05/22 07:37:40;;;;;;;;;;;;;;;19.74;54.03;92717.56;2061135;69;20056;-74
2022/05/22 07:40:32;;;;;;;;;;;;;;;19.68;53.53;92705.28;2058168;69;20517;-73
2022/05/22 07:43:16;;;;;;;;;;;;;;;19.83;52.63;92703.53;2068894;69;20061;-71
2022/05/22 07:46:01;;;;;;;;;;;;;;;20.14;51.89;92696.47;2068964;69;20046;-72
2022/05/22 07:48:38;;;;;;;;;;;;;;;20.47;52.60;92681.59;2068907;69;20058;-72
2022/05/22 07:51:19;;;;;;;;;;;;;;;20.62;52.10;92690.50;2068930;69;20065;-72
2022/05/22 07:54:03;;;;;;;;;;;;;;;20.53;50.50;92675.31;2066983;69;20061;-72
2022/05/22 07:56:52;;;;;;;;;;;;;;;21.06;50.50;92665.75;2057587;69;20140;-73
2022/05/22 07:59:28;;;;;;;;;;;;;;;21.45;51.26;92660.84;2068749;69;20181;-72
2022/05/22 08:02:15;;;;;;;;;;;;;;;21.69;50.08;92652.00;2068819;69;20046;-73
2022/05/22 08:04:45;;;;;;;;;;;;;;;22.13;48.70;92656.38;2068576;69;20082;-72
2022/05/22 08:07:37;;;;;;;;;;;;;;;22.15;47.42;92657.13;2056227;69;20053;-72
2022/05/22 08:10:10;;;;;;;;;;;;;;;22.35;48.16;92653.16;2066352;69;20053;-71
2022/05/22 08:12:37;;;;;;;;;;;;;;;22.42;47.95;92657.59;2068809;69;20054;-73
2022/05/22 08:15:11;;;;;;;;;;;;;;;23.07;45.74;92653.53;2069008;69;20053;-72
2022/05/22 08:17:37;;;;;;;;;;;;;;;23.52;46.05;92653.41;2066075;69;20081;-72
2022/05/22 08:20:08;;;;;;;;;;;;;;;23.67;44.12;92651.44;2068837;69;20082;-73
2022/05/22 08:23:02;;;;;;;;;;;;;;;23.37;44.56;92641.03;2056002;69;20444;-72
2022/05/22 08:25:45;;;;;;;;;;;;;;;24.02;44.10;92641.03;2068704;69;20046;-73
2022/05/22 08:28:12;;;;;;;;;;;;;;;24.15;43.28;92639.00;2068825;69;20058;-72
2022/05/22 08:30:37;;;;;;;;;;;;;;;24.52;42.14;92631.44;2055608;70;20054;-73
2022/05/22 08:33:03;;;;;;;;;;;;;;;25.04;40.17;92633.22;2068793;69;20059;-72
2022/05/22 08:35:31;;;;;;;;;;;;;;;24.51;41.14;92624.94;2055942;70;20054;-74
2022/05/22 08:37:57;;;;;;;;;;;;;;;24.68;41.89;92613.53;2055800;70;20429;-74
2022/05/22 08:40:24;;;;;;;;;;;;;;;24.94;42.12;92618.75;2055819;70;20061;-74
2022/05/22 08:42:55;;;;;;;;;;;;;;;25.33;42.19;92613.94;2055869;70;20117;-75
2022/05/22 08:45:23;;;;;;;;;;;;;;;24.62;40.49;92604.88;2055875;70;20085;-74
2022/05/22 08:47:58;;;;;;;;;;;;;;;24.98;40.65;92613.03;2065783;69;20131;-74
2022/05/22 08:50:25;;;;;;;;;;;;;;;25.59;40.76;92616.19;2055792;70;20051;-72
2022/05/22 08:53:00;;;;;;;;;;;;;;;25.53;41.18;92601.78;2068803;69;20058;-73
2022/05/22 08:58:56;;;;;;;;;;;;;;;25.73;40.69;92598.94;2055742;69;20066;-73
2022/05/22 09:01:04;;;;;;;;;;;;;;;25.46;39.59;92603.91;2055980;70;20500;-73
2022/05/22 09:03:36;;;;;;;;;;;;;;;26.49;39.16;92599.09;2055750;69;20089;-75
2022/05/22 09:06:04;;;;;;;;;;;;;;;26.98;39.70;92587.47;2055755;70;20150;-72
2022/05/22 09:08:49;;;;;;;;;;;;;;;26.63;37.94;92589.69;2055735;70;20055;-73
2022/05/22 09:11:27;;;;;;;;;;;;;;;27.19;37.94;92591.06;2055631;69;20150;-73
2022/05/22 09:13:54;;;;;;;;;;;;;;;26.48;38.64;92589.72;2055699;70;20141;-73
2022/05/22 09:16:19;;;;;;;;;;;;;;;26.97;37.68;92595.41;2055701;70;20054;-73
2022/05/22 09:18:57;;;;;;;;;;;;;;;27.19;38.26;92588.88;2068723;69;20065;-72
2022/05/22 09:21:23;;;;;;;;;;;;;;;27.66;38.45;92573.50;2055787;69;20054;-72
2022/05/22 09:24:02;;;;;;;;;;;;;;;27.66;37.55;92570.63;2055701;70;20061;-72
2022/05/22 09:26:36;;;;;;;;;;;;;;;26.90;38.27;92565.13;2068570;69;20046;-73
2022/05/22 09:29:18;;;;;;;;;;;;;;;26.79;38.41;92561.50;2055669;69;20061;-72
2022/05/22 09:31:50;;;;;;;;;;;;;;;27.41;37.22;92556.28;2068743;69;20064;-73
2022/05/22 09:34:19;;;;;;;;;;;;;;;26.47;37.19;92553.63;2055717;70;20051;-73
2022/05/22 09:36:45;;;;;;;;;;;;;;;26.92;38.06;92555.72;2055634;70;20046;-72
2022/05/22 09:39:10;;;;;;;;;;;;;;;27.83;38.05;92552.47;2055684;70;20122;-71
2022/05/22 09:41:48;;;;;;;;;;;;;;;26.72;37.75;92550.72;2055591;70;20429;-72
2022/05/22 09:44:26;;;;;;;;;;;;;;;25.79;39.41;92543.47;2055250;70;20433;-71
2022/05/22 09:47:12;;;;;;;;;;;;;;;26.14;39.02;92532.69;2055601;70;20446;-71
2022/05/22 09:49:47;;;;;;;;;;;;;;;26.57;37.54;92532.69;2055546;69;20123;-72
2022/05/22 09:52:12;;;;;;;;;;;;;;;27.52;36.86;92528.78;2055654;70;20054;-72
2022/05/22 09:54:47;;;;;;;;;;;;;;;27.16;37.25;92523.16;2055675;70;20057;-73
2022/05/22 09:57:12;;;;;;;;;;;;;;;27.59;36.98;92527.28;2055588;70;20567;-73
2022/05/22 09:59:50;;;;;;;;;;;;;;;28.03;36.35;92522.69;2055261;70;20059;-73
2022/05/22 10:02:23;;;;;;;;;;;;;;;28.04;35.57;92524.16;2055704;70;20062;-74
2022/05/22 10:08:17;;;;;;;;;;;;;;;26.81;36.96;92506.66;2055686;69;20148;-72
2022/05/22 10:10:44;;;;;;;;;;;;;;;27.21;37.92;92502.19;2055672;70;20070;-72
2022/05/22 10:13:14;;;;;;;;;;;;;;;27.67;35.94;92499.78;2055718;70;20414;-72
2022/05/22 10:15:48;;;;;;;;;;;;;;;28.18;35.65;92499.41;2055558;70;20478;-73
2022/05/22 10:18:26;;;;;;;;;;;;;;;27.81;36.20;92497.56;2055640;70;20480;-72
2022/05/22 10:21:00;;;;;;;;;;;;;;;27.88;35.99;92500.41;2055632;70;20058;-74
2022/05/22 10:23:44;;;;;;;;;;;;;;;28.62;35.13;92495.44;2055649;70;20426;-74
2022/05/22 10:26:13;;;;;;;;;;;;;;;28.58;34.97;92515.75;2055399;70;20054;-72
2022/05/22 10:28:44;;;;;;;;;;;;;;;28.18;35.40;92513.88;2068496;69;20093;-72
2022/05/22 10:31:17;;;;;;;;;;;;;;;28.52;35.25;92513.63;2055385;70;20146;-72
2022/05/22 10:33:54;;;;;;;;;;;;;;;28.66;34.88;92506.97;2055557;70;20090;-72
2022/05/22 10:36:25;;;;;;;;;;;;;;;28.19;35.72;92500.88;2055506;70;20058;-73
2022/05/22 10:38:51;;;;;;;;;;;;;;;28.15;35.41;92516.09;2055646;70;20061;-74
2022/05/22 10:44:14;;;;;;;;;;;;;;;29.04;34.32;92484.88;2055662;70;20106;-74
2022/05/22 10:46:46;;;;;;;;;;;;;;;28.97;34.41;92472.63;2068573;69;20076;-73
2022/05/22 10:49:12;;;;;;;;;;;;;;;29.69;33.53;92469.56;2055436;70;20525;-74
2022/05/22 10:51:37;;;;;;;;;;;;;;;30.15;32.03;92455.81;2055494;70;20058;-74
2022/05/22 10:54:03;;;;;;;;;;;;;;;30.88;31.35;92471.22;2055461;70;20074;-75
2022/05/22 10:56:30;;;;;;;;;;;;;;;29.92;32.16;92472.84;2055341;70;20050;-75
2022/05/22 10:58:55;;;;;;;;;;;;;;;32.47;31.29;92473.59;2055475;70;20058;-74
2022/05/22 11:01:22;;;;;;;;;;;;;;;29.60;32.12;92476.94;2055445;70;20406;-73
2022/05/22 11:03:48;;;;;;;;;;;;;;;34.33;26.72;92477.81;2055530;70;20077;-71
2022/05/22 11:06:21;;;;;;;;;;;;;;;34.76;25.75;92478.63;2055476;70;20421;-71
2022/05/22 11:08:48;;;;;;;;;;;;;;;34.71;26.59;92474.44;2068459;69;20056;-73
2022/05/22 11:11:15;;;;;;;;;;;;;;;36.75;24.99;92460.97;2055343;70;20453;-72
2022/05/22 11:13:41;;;;;;;;;;;;;;;35.27;25.20;92448.31;2055440;70;20058;-72
2022/05/22 11:16:12;;;;;;;;;;;;;;;35.59;24.59;92454.50;2068290;69;20058;-74
2022/05/22 11:18:37;;;;;;;;;;;;;;;36.47;24.13;92445.94;2055439;70;20493;-73
2022/05/22 11:21:23;;;;;;;;;;;;;;;36.06;24.94;92441.75;2055556;70;20050;-73
2022/05/22 11:24:13;;;;;;;;;;;;;;;35.53;25.43;92445.97;2056321;69;20142;-72
2022/05/22 11:26:55;;;;;;;;;;;;;;;37.36;23.13;92426.03;2056290;69;20511;-73
2022/05/22 11:29:36;;;;;;;;;;;;;;;34.79;25.10;92442.00;2055351;69;20076;-73
2022/05/22 11:32:20;;;;;;;;;;;;;;;37.56;22.71;92433.22;2068371;69;20048;-73
2022/05/22 11:34:54;;;;;;;;;;;;;;;40.84;20.82;92445.78;2055416;69;20062;-72
2022/05/22 11:37:43;;;;;;;;;;;;;;;43.04;19.17;92440.28;2055349;70;20100;-73
2022/05/22 11:40:12;;;;;;;;;;;;;;;44.22;17.76;92433.63;2068228;69;20065;-73
2022/05/22 11:42:38;;;;;;;;;;;;;;;42.67;18.25;92417.63;2055675;70;20062;-73
2022/05/22 11:45:14;;;;;;;;;;;;;;;41.35;19.67;92416.22;2056021;70;20054;-75
2022/05/22 11:47:46;;;;;;;;;;;;;;;39.06;22.00;92413.50;2056017;70;20127;-74
2022/05/22 11:50:27;;;;;;;;;;;;;;;41.43;19.60;92396.63;2055852;70;20119;-73
2022/05/22 11:52:56;;;;;;;;;;;;;;;45.17;16.59;92425.22;2055861;69;20057;-73
2022/05/22 11:55:26;;;;;;;;;;;;;;;43.26;18.36;92407.75;2055919;69;20050;-74
2022/05/22 11:57:59;;;;;;;;;;;;;;;44.46;16.55;92405.19;2068931;69;20095;-73
2022/05/22 12:00:28;;;;;;;;;;;;;;;45.41;16.86;92402.59;2068876;69;20098;-73
2022/05/22 12:02:56;;;;;;;;;;;;;;;44.17;17.00;92382.09;2055873;70;20054;-73
2022/05/22 12:05:38;;;;;;;;;;;;;;;44.05;16.65;92363.66;2055857;70;20059;-75
2022/05/22 12:08:06;;;;;;;;;;;;;;;46.85;14.30;92371.78;2068890;69;20529;-74
2022/05/22 12:10:44;;;;;;;;;;;;;;;42.42;13.39;92341.56;2055760;70;20054;-76
2022/05/22 12:13:10;;;;;;;;;;;;;;;44.55;13.78;92337.75;2055884;70;20050;-75
2022/05/22 12:15:54;;;;;;;;;;;;;;;44.80;12.46;92338.91;2068808;69;20503;-75
2022/05/22 12:18:37;;;;;;;;;;;;;;;45.63;12.18;92320.56;2055849;69;20139;-75
2022/05/22 12:21:12;;;;;;;;;;;;;;;42.38;13.06;92307.78;2055742;70;20505;-75
2022/05/22 12:23:41;;;;;;;;;;;;;;;45.71;12.04;92304.38;2055719;69;20513;-75
2022/05/22 12:26:07;;;;;;;;;;;;;;;44.71;13.18;92314.38;2055682;70;20500;-75
2022/05/22 12:28:52;;;;;;;;;;;;;;;44.96;13.68;92304.31;2055785;70;20068;-76
2022/05/22 12:31:19;;;;;;;;;;;;;;;45.88;12.53;92294.88;2055813;70;20089;-76
2022/05/22 12:33:46;;;;;;;;;;;;;;;45.58;11.99;92289.78;2068963;69;20069;-76
2022/05/22 12:36:11;;;;;;;;;;;;;;;41.37;13.71;92279.56;2055826;69;20137;-76
2022/05/22 12:38:48;;;;;;;;;;;;;;;42.14;14.99;92274.59;2055825;70;20133;-75
2022/05/22 12:41:40;;;;;;;;;;;;;;;39.84;15.23;92270.94;2055850;70;20498;-75
2022/05/22 12:44:05;;;;;;;;;;;;;;;38.78;16.72;92264.97;2056228;69;20485;-74
2022/05/22 12:46:32;;;;;;;;;;;;;;;38.25;18.42;92274.22;2054978;70;20054;-75
2022/05/22 12:49:19;;;;;;;;;;;;;;;38.56;17.22;92261.63;2055665;70;20058;-77
2022/05/22 12:51:55;;;;;;;;;;;;;;;37.46;16.13;92263.44;2055663;70;20179;-77
2022/05/22 12:54:22;;;;;;;;;;;;;;;36.66;17.47;92240.00;2055712;70;20434;-75
2022/05/22 12:56:49;;;;;;;;;;;;;;;36.59;18.35;92268.84;2055639;70;20124;-75
2022/05/22 12:59:17;;;;;;;;;;;;;;;35.71;18.82;92260.84;2055614;70;20081;-74
2022/05/22 13:01:45;;;;;;;;;;;;;;;36.61;19.42;92251.91;2055504;70;20077;-73
2022/05/22 13:04:20;;;;;;;;;;;;;;;36.86;18.33;92256.66;2055707;70;20053;-72
2022/05/22 13:06:54;;;;;;;;;;;;;;;35.31;18.36;92254.38;2055725;70;20057;-73
2022/05/22 13:09:39;;;;;;;;;;;;;;;35.02;18.78;92235.03;2068615;69;20047;-72
2022/05/22 13:12:08;;;;;;;;;;;;;;;34.76;18.00;92242.56;2055517;69;20183;-72
2022/05/22 13:14:51;;;;;;;;;;;;;;;34.36;19.16;92239.63;2055576;70;20050;-72
2022/05/22 13:17:17;;;;;;;;;;;;;;;33.59;19.90;92236.44;2055648;70;20062;-73
2022/05/22 13:19:51;;;;;;;;;;;;;;;33.88;21.85;92236.91;2055560;70;20058;-73
2022/05/22 13:22:25;;;;;;;;;;;;;;;33.85;20.07;92238.47;2055455;69;20091;-77
2022/05/22 13:24:51;;;;;;;;;;;;;;;34.00;21.04;92240.94;2055639;70;20063;-78
2022/05/22 13:27:22;;;;;;;;;;;;;;;33.86;21.63;92218.72;2055570;70;20050;-76
2022/05/22 13:29:51;;;;;;;;;;;;;;;33.57;20.98;92224.84;2055635;70;20486;-77
2022/05/22 13:32:19;;;;;;;;;;;;;;;33.40;20.62;92224.63;2055669;70;20052;-73
2022/05/22 13:34:49;;;;;;;;;;;;;;;33.12;20.94;92223.34;2055464;70;20090;-72
2022/05/22 13:37:21;;;;;;;;;;;;;;;34.03;21.58;92222.53;2055791;70;20111;-72
2022/05/22 13:40:07;;;;;;;;;;;;;;;33.94;21.65;92223.59;2055662;69;20055;-75
2022/05/22 13:42:52;;;;;;;;;;;;;;;33.24;21.52;92219.34;2055410;70;20425;-72
2022/05/22 13:45:20;;;;;;;;;;;;;;;33.39;20.40;92211.53;2055535;70;20054;-72
2022/05/22 13:48:05;;;;;;;;;;;;;;;33.03;21.69;92208.31;2055681;70;20062;-72